sensor_id;sensor_type;location;lat;lon;timestamp;pressure;altitude;pressure_sealevel;temperature;humidity
11001;BME280;5553;48.506;8.870;2023-10-08T17:59:16;97427.66;;;17.17;69.76
11001;BME280;5553;48.506;8.870;2023-10-08T18:01:48;97432.66;;;17.00;70.05
11001;BME280;5553;48.506;8.870;2023-10-08T18:04:17;97432.66;;;17.00;70.56
11001;BME280;5553;48.506;8.870;2023-10-08T18:06:48;97433.31;;;16.75;71.71
11001;BME280;5553;48.506;8.870;2023-10-08T18:09:16;97426.16;;;16.49;73.18
11001;BME280;5553;48.506;8.870;2023-10-08T18:11:45;97426.97;;;16.50;74.67
11001;BME280;5553;48.506;8.870;2023-10-08T18:14:17;97421.22;;;16.46;75.59
11001;BME280;5553;48.506;8.870;2023-10-08T18:16:46;97422.88;;;16.47;75.29
11001;BME280;5553;48.506;8.870;2023-10-08T18:19:15;97426.97;;;16.56;74.39
11001;BME280;5553;48.506;8.870;2023-10-08T18:21:44;97431.06;;;16.66;73.49
11001;BME280;5553;48.506;8.870;2023-10-08T18:24:13;97427.19;;;16.48;74.37
11001;BME280;5553;48.506;8.870;2023-10-08T18:26:43;97422.44;;;16.57;74.51
11001;BME280;5553;48.506;8.870;2023-10-08T18:29:16;97429.19;;;16.73;74.10
11001;BME280;5553;48.506;8.870;2023-10-08T18:31:45;97442.47;;;17.06;72.24
11001;BME280;5553;48.506;8.870;2023-10-08T18:34:13;97422.03;;;16.60;73.06
11001;BME280;5553;48.506;8.870;2023-10-08T18:36:42;97423.34;;;15.43;80.24
11001;BME280;5553;48.506;8.870;2023-10-08T18:39:11;97421.41;;;15.17;83.30
11001;BME280;5553;48.506;8.870;2023-10-08T18:41:44;97418.44;;;14.92;88.01
11001;BME280;5553;48.506;8.870;2023-10-08T18:44:16;97420.44;;;15.25;87.41
11001;BME280;5553;48.506;8.870;2023-10-08T18:46:45;97428.88;;;15.48;85.49
11001;BME280;5553;48.506;8.870;2023-10-08T18:49:14;97421.31;;;15.52;84.12
11001;BME280;5553;48.506;8.870;2023-10-08T18:51:42;97417.63;;;15.46;83.68
11001;BME280;5553;48.506;8.870;2023-10-08T18:54:11;97413.31;;;15.45;83.73
11001;BME280;5553;48.506;8.870;2023-10-08T18:56:40;97402.22;;;15.22;85.40
11001;BME280;5553;48.506;8.870;2023-10-08T18:59:08;97414.50;;;15.29;85.51
11001;BME280;5553;48.506;8.870;2023-10-08T19:01:39;97408.44;;;15.55;84.11
11001;BME280;5553;48.506;8.870;2023-10-08T19:04:08;97413.56;;;15.50;83.94
11001;BME280;5553;48.506;8.870;2023-10-08T19:06:37;97401.44;;;15.41;84.41
11001;BME280;5553;48.506;8.870;2023-10-08T19:09:05;97398.59;;;15.36;84.66
11001;BME280;5553;48.506;8.870;2023-10-08T19:11:35;97404.50;;;15.25;86.01
11001;BME280;5553;48.506;8.870;2023-10-08T19:14:04;97404.59;;;15.03;88.02
11001;BME280;5553;48.506;8.870;2023-10-08T19:16:32;97403.53;;;14.91;90.87
11001;BME280;5553;48.506;8.870;2023-10-08T19:19:04;97403.75;;;14.96;90.77
11001;BME280;5553;48.506;8.870;2023-10-08T19:21:33;97404.66;;;15.16;89.32
11001;BME280;5553;48.506;8.870;2023-10-08T19:24:05;97416.13;;;15.24;87.61
11001;BME280;5553;48.506;8.870;2023-10-08T19:26:33;97408.00;;;15.32;86.31
11001;BME280;5553;48.506;8.870;2023-10-08T19:29:03;97410.47;;;15.47;84.12
11001;BME280;5553;48.506;8.870;2023-10-08T19:31:31;97414.16;;;15.39;83.67
11001;BME280;5553;48.506;8.870;2023-10-08T19:34:00;97402.22;;;15.22;84.22
11001;BME280;5553;48.506;8.870;2023-10-08T19:36:32;97404.97;;;15.00;86.30
11001;BME280;5553;48.506;8.870;2023-10-08T19:39:01;97409.59;;;14.78;88.89
11001;BME280;5553;48.506;8.870;2023-10-08T19:41:32;97407.53;;;14.74;90.37
11001;BME280;5553;48.506;8.870;2023-10-08T19:44:00;97410.31;;;14.65;91.85
11001;BME280;5553;48.506;8.870;2023-10-08T19:46:29;97412.13;;;14.58;92.93
11001;BME280;5553;48.506;8.870;2023-10-08T19:48:57;97407.22;;;14.34;94.48
11001;BME280;5553;48.506;8.870;2023-10-08T19:51:26;97413.06;;;14.22;96.46
11001;BME280;5553;48.506;8.870;2023-10-08T19:53:57;97413.78;;;14.38;96.21
11001;BME280;5553;48.506;8.870;2023-10-08T19:56:26;97413.19;;;14.36;95.62
11001;BME280;5553;48.506;8.870;2023-10-08T19:58:55;97410.28;;;14.31;95.70
11001;BME280;5553;48.506;8.870;2023-10-08T20:01:24;97403.13;;;14.31;94.79
11001;BME280;5553;48.506;8.870;2023-10-08T20:03:52;97411.50;;;14.35;94.12
11001;BME280;5553;48.506;8.870;2023-10-08T20:06:20;97403.31;;;14.30;94.18
11001;BME280;5553;48.506;8.870;2023-10-08T20:08:49;97411.03;;;14.25;94.75
11001;BME280;5553;48.506;8.870;2023-10-08T20:11:20;97403.97;;;14.10;95.99
11001;BME280;5553;48.506;8.870;2023-10-08T20:13:49;97402.41;;;13.94;98.02
11001;BME280;5553;48.506;8.870;2023-10-08T20:16:20;97406.22;;;13.85;99.41
11001;BME280;5553;48.506;8.870;2023-10-08T20:18:50;97405.66;;;13.90;99.54
11001;BME280;5553;48.506;8.870;2023-10-08T20:21:18;97401.88;;;13.99;98.51
11001;BME280;5553;48.506;8.870;2023-10-08T20:23:47;97402.63;;;13.93;98.66
11001;BME280;5553;48.506;8.870;2023-10-08T20:26:16;97398.94;;;13.94;97.87
11001;BME280;5553;48.506;8.870;2023-10-08T20:28:51;97406.78;;;14.02;97.70
11001;BME280;5553;48.506;8.870;2023-10-08T20:31:20;97407.97;;;13.99;97.54
11001;BME280;5553;48.506;8.870;2023-10-08T20:33:49;97402.50;;;13.80;99.70
11001;BME280;5553;48.506;8.870;2023-10-08T20:36:18;97405.84;;;13.67;100.00
11001;BME280;5553;48.506;8.870;2023-10-08T20:38:47;97389.47;;;13.63;100.00
11001;BME280;5553;48.506;8.870;2023-10-08T20:41:15;97394.41;;;13.45;100.00
11001;BME280;5553;48.506;8.870;2023-10-08T20:43:48;97393.59;;;13.44;100.00
11001;BME280;5553;48.506;8.870;2023-10-08T20:46:18;97406.91;;;13.51;100.00
11001;BME280;5553;48.506;8.870;2023-10-08T20:48:47;97392.03;;;13.71;100.00
11001;BME280;5553;48.506;8.870;2023-10-08T20:51:16;97392.63;;;13.73;100.00
11001;BME280;5553;48.506;8.870;2023-10-08T20:53:45;97385.63;;;13.66;100.00
11001;BME280;5553;48.506;8.870;2023-10-08T20:56:14;97390.81;;;13.52;100.00
11001;BME280;5553;48.506;8.870;2023-10-08T20:58:42;97383.00;;;13.30;100.00
11001;BME280;5553;48.506;8.870;2023-10-08T21:01:14;97392.69;;;13.22;100.00
11001;BME280;5553;48.506;8.870;2023-10-08T21:03:43;97393.84;;;13.13;100.00
11001;BME280;5553;48.506;8.870;2023-10-08T21:06:17;97392.81;;;13.14;100.00
11001;BME280;5553;48.506;8.870;2023-10-08T21:08:46;97402.41;;;13.15;100.00
11001;BME280;5553;48.506;8.870;2023-10-08T21:11:15;97390.81;;;13.16;100.00
11001;BME280;5553;48.506;8.870;2023-10-08T21:13:44;97383.75;;;13.23;100.00
11001;BME280;5553;48.506;8.870;2023-10-08T21:16:15;97387.47;;;12.93;100.00
11001;BME280;5553;48.506;8.870;2023-10-08T21:18:44;97380.63;;;12.84;100.00
11001;BME280;5553;48.506;8.870;2023-10-08T21:21:17;97379.75;;;12.62;100.00
11001;BME280;5553;48.506;8.870;2023-10-08T21:23:47;97383.94;;;12.56;100.00
11001;BME280;5553;48.506;8.870;2023-10-08T21:26:17;97382.84;;;12.65;100.00
11001;BME280;5553;48.506;8.870;2023-10-08T21:28:46;97381.56;;;12.76;100.00
11001;BME280;5553;48.506;8.870;2023-10-08T21:31:17;97379.66;;;12.55;100.00
11001;BME280;5553;48.506;8.870;2023-10-08T21:33:45;97372.34;;;12.72;100.00
11001;BME280;5553;48.506;8.870;2023-10-08T21:36:15;97372.41;;;12.64;100.00
11001;BME280;5553;48.506;8.870;2023-10-08T21:38:43;97368.69;;;12.58;100.00
11001;BME280;5553;48.506;8.870;2023-10-08T21:41:12;97380.16;;;12.50;100.00
11001;BME280;5553;48.506;8.870;2023-10-08T21:43:40;97364.25;;;12.06;100.00
11001;BME280;5553;48.506;8.870;2023-10-08T21:46:09;97369.09;;;11.79;100.00
11001;BME280;5553;48.506;8.870;2023-10-08T21:48:41;97358.84;;;11.84;100.00
11001;BME280;5553;48.506;8.870;2023-10-08T21:51:12;97357.53;;;11.80;100.00
11001;BME280;5553;48.506;8.870;2023-10-08T21:53:40;97365.09;;;11.83;100.00
11001;BME280;5553;48.506;8.870;2023-10-08T21:56:09;97375.53;;;11.85;100.00
11001;BME280;5553;48.506;8.870;2023-10-08T21:58:37;97361.69;;;11.98;100.00
11001;BME280;5553;48.506;8.870;2023-10-08T22:01:06;97360.88;;;11.97;100.00
11001;BME280;5553;48.506;8.870;2023-10-08T22:03:46;97351.38;;;12.03;100.00
11001;BME280;5553;48.506;8.870;2023-10-08T22:06:15;97352.31;;;12.10;100.00
11001;BME280;5553;48.506;8.870;2023-10-08T22:08:43;97349.25;;;12.21;100.00
11001;BME280;5553;48.506;8.870;2023-10-08T22:11:12;97352.97;;;12.27;100.00
11001;BME280;5553;48.506;8.870;2023-10-08T22:13:41;97339.94;;;12.55;100.00
11001;BME280;5553;48.506;8.870;2023-10-08T22:16:12;97339.56;;;12.58;100.00
11001;BME280;5553;48.506;8.870;2023-10-08T22:18:47;97346.25;;;13.05;100.00
11001;BME280;5553;48.506;8.870;2023-10-08T22:21:22;97343.31;;;12.64;100.00
11001;BME280;5553;48.506;8.870;2023-10-08T22:23:53;97339.53;;;12.88;100.00
11001;BME280;5553;48.506;8.870;2023-10-08T22:26:22;97330.88;;;12.64;100.00
11001;BME280;5553;48.506;8.870;2023-10-08T22:28:53;97332.97;;;12.84;100.00
11001;BME280;5553;48.506;8.870;2023-10-08T22:31:22;97319.56;;;12.70;100.00
11001;BME280;5553;48.506;8.870;2023-10-08T22:33:53;97330.59;;;12.74;100.00
11001;BME280;5553;48.506;8.870;2023-10-08T22:36:29;97332.44;;;12.73;100.00
11001;BME280;5553;48.506;8.870;2023-10-08T22:39:07;97340.00;;;13.13;100.00
11001;BME280;5553;48.506;8.870;2023-10-08T22:41:36;97332.75;;;12.85;100.00
11001;BME280;5553;48.506;8.870;2023-10-08T22:44:09;97326.84;;;12.68;100.00
11001;BME280;5553;48.506;8.870;2023-10-08T22:46:41;97328.25;;;12.49;100.00
11001;BME280;5553;48.506;8.870;2023-10-08T22:49:12;97327.06;;;12.37;100.00
11001;BME280;5553;48.506;8.870;2023-10-08T22:51:46;97323.78;;;12.35;100.00
11001;BME280;5553;48.506;8.870;2023-10-08T22:54:15;97322.22;;;12.41;100.00
11001;BME280;5553;48.506;8.870;2023-10-08T22:56:44;97320.69;;;12.46;100.00
11001;BME280;5553;48.506;8.870;2023-10-08T22:59:15;97325.88;;;12.40;100.00
11001;BME280;5553;48.506;8.870;2023-10-08T23:01:44;97323.78;;;12.35;100.00
11001;BME280;5553;48.506;8.870;2023-10-08T23:04:16;97336.47;;;12.40;100.00
11001;BME280;5553;48.506;8.870;2023-10-08T23:06:44;97322.78;;;12.21;100.00
11001;BME280;5553;48.506;8.870;2023-10-08T23:09:14;97340.75;;;12.26;100.00
11001;BME280;5553;48.506;8.870;2023-10-08T23:11:50;97325.13;;;12.16;100.00
11001;BME280;5553;48.506;8.870;2023-10-08T23:14:20;97323.31;;;12.02;100.00
11001;BME280;5553;48.506;8.870;2023-10-08T23:16:49;97319.84;;;11.87;100.00
11001;BME280;5553;48.506;8.870;2023-10-08T23:19:24;97324.84;;;11.96;100.00
11001;BME280;5553;48.506;8.870;2023-10-08T23:21:53;97328.13;;;11.98;100.00
11001;BME280;5553;48.506;8.870;2023-10-08T23:24:22;97315.38;;;12.02;100.00
11001;BME280;5553;48.506;8.870;2023-10-08T23:26:50;97317.84;;;12.03;100.00
11001;BME280;5553;48.506;8.870;2023-10-08T23:29:19;97306.25;;;12.04;100.00
11001;BME280;5553;48.506;8.870;2023-10-08T23:31:47;97296.84;;;11.87;100.00
11001;BME280;5553;48.506;8.870;2023-10-08T23:34:16;97302.97;;;11.88;100.00
11001;BME280;5553;48.506;8.870;2023-10-08T23:36:49;97293.66;;;11.54;100.00
11001;BME280;5553;48.506;8.870;2023-10-08T23:39:21;97297.03;;;11.85;100.00
11001;BME280;5553;48.506;8.870;2023-10-08T23:41:51;97293.63;;;11.77;100.00
11001;BME280;5553;48.506;8.870;2023-10-08T23:44:27;97286.03;;;11.59;100.00
11001;BME280;5553;48.506;8.870;2023-10-08T23:46:56;97291.44;;;11.80;100.00
11001;BME280;5553;48.506;8.870;2023-10-08T23:49:36;97288.94;;;11.64;100.00
11001;BME280;5553;48.506;8.870;2023-10-08T23:52:21;97271.81;;;11.60;100.00
11001;BME280;5553;48.506;8.870;2023-10-08T23:54:58;97275.81;;;11.56;100.00
11001;BME280;5553;48.506;8.870;2023-10-08T23:57:29;97288.38;;;11.69;100.00
